createdAt,value
2023-04-15T00:02:00.057Z,7.82
2023-04-15T00:04:27.781Z,7.82
2023-04-15T00:06:54.802Z,7.81
2023-04-15T00:09:21.682Z,7.83
2023-04-15T00:11:48.197Z,7.79
2023-04-15T00:14:14.735Z,7.80
2023-04-15T00:16:41.522Z,7.78
2023-04-15T00:19:08.369Z,7.79
2023-04-15T00:21:35.075Z,7.79
2023-04-15T00:24:01.952Z,7.77
2023-04-15T00:26:28.607Z,7.78
2023-04-15T00:28:55.223Z,7.78
2023-04-15T00:31:21.917Z,7.78
2023-04-15T00:33:48.802Z,7.78
2023-04-15T00:36:15.594Z,7.80
2023-04-15T00:38:42.140Z,7.79
2023-04-15T00:41:10.414Z,7.75
2023-04-15T00:43:36.978Z,7.78
2023-04-15T00:46:05.967Z,7.78
2023-04-15T00:48:32.565Z,7.76
2023-04-15T00:50:59.408Z,7.76
2023-04-15T00:53:25.989Z,7.77
2023-04-15T00:55:52.799Z,7.76
2023-04-15T00:58:19.413Z,7.74
2023-04-15T01:00:46.740Z,7.75
2023-04-15T01:03:14.096Z,7.74
2023-04-15T01:05:41.345Z,7.74
2023-04-15T01:08:08.301Z,7.74
2023-04-15T01:10:35.379Z,7.74
2023-04-15T01:13:03.262Z,7.75
2023-04-15T01:15:30.689Z,7.74
2023-04-15T01:17:59.423Z,7.74
2023-04-15T01:20:26.196Z,7.75
2023-04-15T01:22:55.046Z,7.74
2023-04-15T01:25:34.348Z,7.75
2023-04-15T01:28:01.228Z,7.75
2023-04-15T01:30:27.827Z,7.74
2023-04-15T01:32:54.450Z,7.75
2023-04-15T01:35:21.587Z,7.75
2023-04-15T01:37:48.604Z,7.74
2023-04-15T01:40:15.375Z,7.73
2023-04-15T01:42:41.905Z,7.71
2023-04-15T01:45:09.204Z,7.70
2023-04-15T01:47:35.792Z,7.70
2023-04-15T01:50:02.273Z,7.70
2023-04-15T01:52:28.795Z,7.70
2023-04-15T01:54:55.344Z,7.69
2023-04-15T01:57:21.993Z,7.69
2023-04-15T01:59:48.514Z,7.70
2023-04-15T02:02:15.521Z,7.69
2023-04-15T02:04:42.105Z,7.70
2023-04-15T02:07:08.610Z,7.71
2023-04-15T02:09:35.127Z,7.71
2023-04-15T02:12:01.878Z,7.71
2023-04-15T02:14:28.387Z,7.69
2023-04-15T02:16:54.986Z,7.69
2023-04-15T02:19:22.149Z,7.71
2023-04-15T02:21:48.623Z,7.70
2023-04-15T02:24:15.103Z,7.70
2023-04-15T02:26:41.643Z,7.70
2023-04-15T02:29:08.142Z,7.68
2023-04-15T02:31:37.114Z,7.68
2023-04-15T02:34:04.435Z,7.67
2023-04-15T02:36:32.032Z,7.68
2023-04-15T02:38:58.887Z,7.68
2023-04-15T02:41:27.791Z,7.70
2023-04-15T02:43:54.849Z,7.67
2023-04-15T02:46:23.035Z,7.63
2023-04-15T02:48:50.225Z,7.63
2023-04-15T02:51:21.576Z,7.63
2023-04-15T02:53:49.333Z,7.64
2023-04-15T02:56:17.320Z,7.65
2023-04-15T02:58:50.636Z,7.65
2023-04-15T03:01:17.306Z,7.63
2023-04-15T03:03:43.871Z,7.61
2023-04-15T03:06:10.774Z,7.61
2023-04-15T03:08:37.361Z,7.62
2023-04-15T03:11:04.756Z,7.63
2023-04-15T03:13:31.474Z,7.60
2023-04-15T03:15:58.045Z,7.62
2023-04-15T03:18:24.583Z,7.63
2023-04-15T03:20:51.254Z,7.65
2023-04-15T03:23:17.866Z,7.64
2023-04-15T03:25:45.097Z,7.66
2023-04-15T03:28:11.627Z,7.65
2023-04-15T03:30:38.126Z,7.64
2023-04-15T03:33:04.623Z,7.62
2023-04-15T03:35:31.287Z,7.64
2023-04-15T03:37:57.761Z,7.64
2023-04-15T03:40:24.222Z,7.64
2023-04-15T03:42:51.015Z,7.63
2023-04-15T03:45:17.498Z,7.62
2023-04-15T03:47:44.061Z,7.59
2023-04-15T03:50:10.997Z,7.56
2023-04-15T03:52:37.672Z,7.50
2023-04-15T03:55:04.418Z,7.43
2023-04-15T03:57:31.297Z,7.39
2023-04-15T03:59:57.804Z,7.35
2023-04-15T04:02:24.590Z,7.29
2023-04-15T04:04:51.258Z,7.29
2023-04-15T04:07:18.512Z,7.28
2023-04-15T04:09:47.005Z,7.30
2023-04-15T04:12:13.939Z,7.27
2023-04-15T04:14:40.792Z,7.29
2023-04-15T04:17:07.429Z,7.27
2023-04-15T04:19:34.409Z,7.25
2023-04-15T04:22:01.354Z,7.25
2023-04-15T04:24:27.933Z,7.24
2023-04-15T04:26:54.557Z,7.21
2023-04-15T04:29:21.050Z,7.21
2023-04-15T04:31:48.746Z,7.19
2023-04-15T04:34:16.159Z,7.20
2023-04-15T04:36:42.751Z,7.18
2023-04-15T04:39:09.219Z,7.18
2023-04-15T04:41:35.759Z,7.14
2023-04-15T04:44:02.530Z,7.15
2023-04-15T04:46:29.174Z,7.19
2023-04-15T04:48:55.847Z,7.18
2023-04-15T04:51:22.578Z,7.18
2023-04-15T04:53:49.143Z,7.18
2023-04-15T04:56:15.651Z,7.17
2023-04-15T04:58:42.493Z,7.16
2023-04-15T05:01:09.121Z,7.15
2023-04-15T05:03:35.954Z,7.14
2023-04-15T05:06:06.135Z,7.12
2023-04-15T05:08:32.870Z,7.11
2023-04-15T05:10:59.408Z,7.11
2023-04-15T05:13:26.216Z,7.08
2023-04-15T05:15:53.408Z,7.06
2023-04-15T05:18:20.653Z,7.03
2023-04-15T05:20:47.228Z,7.03
2023-04-15T05:23:13.748Z,7.00
2023-04-15T05:25:40.260Z,7.00
2023-04-15T05:28:06.747Z,6.98
2023-04-15T05:30:33.303Z,6.99
2023-04-15T05:32:59.931Z,6.97
2023-04-15T05:35:27.161Z,6.97
2023-04-15T05:37:53.632Z,6.96
2023-04-15T05:40:20.194Z,6.97
2023-04-15T05:42:46.784Z,6.97
2023-04-15T05:45:13.698Z,7.00
2023-04-15T05:47:40.252Z,7.02
2023-04-15T05:50:07.357Z,7.04
2023-04-15T05:52:33.876Z,7.01
2023-04-15T05:55:00.442Z,7.03
2023-04-15T05:57:26.959Z,7.05
2023-04-15T05:59:53.535Z,7.04
2023-04-15T06:02:20.151Z,7.04
2023-04-15T06:04:46.761Z,7.05
2023-04-15T06:07:13.276Z,7.08
2023-04-15T06:09:39.800Z,7.10
2023-04-15T06:12:06.910Z,7.14
2023-04-15T06:14:33.398Z,7.17
2023-04-15T06:17:00.056Z,7.19
2023-04-15T06:19:26.536Z,7.19
2023-04-15T06:21:53.115Z,7.21
2023-04-15T06:24:19.657Z,7.22
2023-04-15T06:26:46.291Z,7.24
2023-04-15T06:29:12.881Z,7.26
2023-04-15T06:31:39.434Z,7.29
2023-04-15T06:34:06.304Z,7.31
2023-04-15T06:36:33.053Z,7.31
2023-04-15T06:38:59.798Z,7.33
2023-04-15T06:41:26.586Z,7.34
2023-04-15T06:43:53.080Z,7.36
2023-04-15T06:46:19.785Z,7.38
2023-04-15T06:48:46.499Z,7.38
2023-04-15T06:51:13.004Z,7.39
2023-04-15T06:53:41.206Z,7.41
2023-04-15T06:56:09.685Z,7.41
2023-04-15T06:58:36.370Z,7.43
2023-04-15T07:01:03.451Z,7.46
2023-04-15T07:03:32.557Z,7.47
2023-04-15T07:05:59.760Z,7.48
2023-04-15T07:08:26.542Z,7.52
2023-04-15T07:10:54.168Z,7.54
2023-04-15T07:13:20.794Z,7.57
2023-04-15T07:15:47.295Z,7.59
2023-04-15T07:18:14.059Z,7.62
2023-04-15T07:20:40.554Z,7.63
2023-04-15T07:23:07.129Z,7.67
2023-04-15T07:25:33.602Z,7.68
2023-04-15T07:28:00.374Z,7.71
2023-04-15T07:30:26.873Z,7.73
2023-04-15T07:32:53.546Z,7.74
2023-04-15T07:35:21.444Z,7.77
2023-04-15T07:37:48.488Z,7.80
2023-04-15T07:40:16.149Z,7.83
2023-04-15T07:42:43.550Z,7.85
2023-04-15T07:45:10.565Z,7.88
2023-04-15T07:47:37.215Z,7.90
2023-04-15T07:50:03.953Z,7.93
2023-04-15T07:52:30.616Z,7.95
2023-04-15T07:54:57.107Z,7.97
2023-04-15T07:57:23.563Z,8.00
2023-04-15T07:59:50.086Z,8.01
2023-04-15T08:02:16.796Z,8.03
2023-04-15T08:04:43.625Z,8.06
2023-04-15T08:07:10.389Z,8.09
2023-04-15T08:09:37.047Z,8.12
2023-04-15T08:12:03.812Z,8.14
2023-04-15T08:14:30.372Z,8.18
2023-04-15T08:16:57.216Z,8.21
2023-04-15T08:19:24.260Z,8.25
2023-04-15T08:21:52.092Z,8.28
2023-04-15T08:24:18.839Z,8.31
2023-04-15T08:26:46.861Z,8.34
2023-04-15T08:29:13.424Z,8.37
2023-04-15T08:31:40.096Z,8.39
2023-04-15T08:34:06.648Z,8.44
2023-04-15T08:36:33.750Z,8.49
2023-04-15T08:39:02.246Z,8.53
2023-04-15T08:41:31.415Z,8.57
2023-04-15T08:44:01.386Z,8.62
2023-04-15T08:46:28.218Z,8.68
2023-04-15T08:48:57.932Z,8.70
2023-04-15T08:51:25.292Z,8.77
2023-04-15T08:53:52.630Z,8.83
2023-04-15T08:56:20.302Z,8.90
2023-04-15T08:58:47.749Z,8.98
2023-04-15T09:01:14.376Z,9.05
2023-04-15T09:03:42.100Z,9.12
2023-04-15T09:06:08.740Z,9.19
2023-04-15T09:08:35.818Z,9.27
2023-04-15T09:11:03.291Z,9.35
2023-04-15T09:13:30.582Z,9.42
2023-04-15T09:16:00.177Z,9.55
2023-04-15T09:18:38.648Z,9.70
2023-04-15T09:21:13.152Z,9.84
2023-04-15T09:23:42.107Z,9.96
2023-04-15T09:26:08.598Z,10.07
2023-04-15T09:28:42.987Z,10.15
2023-04-15T09:31:10.649Z,10.22
2023-04-15T09:33:54.896Z,10.30
2023-04-15T09:36:21.416Z,10.38
2023-04-15T09:38:58.126Z,10.48
2023-04-15T09:41:25.766Z,10.59
2023-04-15T09:43:52.789Z,10.71
2023-04-15T09:46:19.911Z,10.84
2023-04-15T09:48:46.730Z,10.96
2023-04-15T09:51:13.274Z,11.06
2023-04-15T09:53:39.776Z,11.16
2023-04-15T09:56:08.071Z,11.23
2023-04-15T09:58:35.755Z,11.33
2023-04-15T10:01:05.937Z,11.39
2023-04-15T10:03:38.205Z,11.46
2023-04-15T10:06:07.318Z,11.53
2023-04-15T10:08:34.982Z,11.60
2023-04-15T10:11:06.474Z,11.66
2023-04-15T10:13:35.061Z,11.72
2023-04-15T10:16:10.896Z,11.77
2023-04-15T10:18:44.084Z,11.84
2023-04-15T10:21:11.258Z,11.93
2023-04-15T10:23:38.855Z,12.04
2023-04-15T10:26:06.913Z,12.15
2023-04-15T10:28:34.922Z,12.31
2023-04-15T10:31:01.764Z,12.44
2023-04-15T10:33:29.442Z,12.59
2023-04-15T10:35:56.694Z,12.72
2023-04-15T10:38:43.310Z,12.85
2023-04-15T10:41:17.856Z,13.02
2023-04-15T10:44:06.333Z,13.06
2023-04-15T10:46:44.468Z,13.05
2023-04-15T10:49:14.917Z,13.08
2023-04-15T10:51:44.396Z,13.29
2023-04-15T10:54:16.580Z,13.38
2023-04-15T10:56:45.468Z,13.52
2023-04-15T10:59:12.140Z,13.64
2023-04-15T11:02:13.441Z,13.77
2023-04-15T11:05:06.663Z,13.93
2023-04-15T11:07:42.083Z,13.96
2023-04-15T11:10:14.389Z,14.07
2023-04-15T11:12:41.993Z,14.17
2023-04-15T11:15:46.869Z,14.13
2023-04-15T11:18:14.662Z,14.04
2023-04-15T11:20:45.908Z,14.26
2023-04-15T11:23:14.453Z,14.38
2023-04-15T11:25:43.292Z,14.57
2023-04-15T11:28:12.016Z,15.05
2023-04-15T11:30:39.834Z,15.29
2023-04-15T11:33:08.649Z,15.29
2023-04-15T11:35:36.082Z,15.33
2023-04-15T11:38:14.491Z,15.36
2023-04-15T11:40:44.550Z,15.53
2023-04-15T11:43:12.764Z,15.79
2023-04-15T11:45:50.059Z,15.94
2023-04-15T11:48:17.123Z,15.86
2023-04-15T11:50:43.766Z,16.00
2023-04-15T11:53:13.641Z,16.00
2023-04-15T11:55:47.299Z,16.07
2023-04-15T11:58:19.844Z,15.90
2023-04-15T12:00:50.974Z,15.85
2023-04-15T12:03:21.972Z,16.01
2023-04-15T12:06:07.599Z,16.06
2023-04-15T12:08:53.157Z,15.92
2023-04-15T12:11:21.533Z,15.97
2023-04-15T12:13:49.637Z,15.92
2023-04-15T12:16:20.070Z,15.84
2023-04-15T12:18:48.355Z,15.97
2023-04-15T12:21:14.917Z,16.04
2023-04-15T12:23:56.495Z,15.95
2023-04-15T12:26:30.406Z,15.85
2023-04-15T12:29:08.389Z,15.78
2023-04-15T12:32:12.747Z,15.82
2023-04-15T12:34:41.305Z,15.72
2023-04-15T12:37:10.732Z,15.66
2023-04-15T12:39:42.468Z,15.74
2023-04-15T12:42:09.795Z,15.82
2023-04-15T12:44:37.933Z,15.87
2023-04-15T12:47:04.880Z,15.84
2023-04-15T12:49:32.795Z,15.86
2023-04-15T12:52:01.089Z,16.01
2023-04-15T12:54:28.588Z,16.08
2023-04-15T12:56:55.643Z,16.12
2023-04-15T12:59:23.832Z,16.11
2023-04-15T13:01:52.325Z,16.08
2023-04-15T13:04:20.766Z,16.21
2023-04-15T13:06:47.614Z,16.32
2023-04-15T13:09:14.389Z,16.23
2023-04-15T13:11:41.336Z,16.09
2023-04-15T13:14:09.095Z,15.97
2023-04-15T13:16:36.195Z,16.08
2023-04-15T13:19:04.135Z,16.20
2023-04-15T13:21:35.058Z,16.18
2023-04-15T13:24:02.311Z,16.14
2023-04-15T13:26:29.154Z,15.93
2023-04-15T13:28:56.144Z,15.76
2023-04-15T13:31:22.683Z,15.86
2023-04-15T13:33:49.285Z,15.81
2023-04-15T13:36:15.901Z,15.69
2023-04-15T13:38:42.571Z,15.59
2023-04-15T13:41:09.135Z,15.62
2023-04-15T13:43:35.797Z,15.59
2023-04-15T13:46:02.773Z,15.55
2023-04-15T13:48:29.509Z,15.44
2023-04-15T13:50:56.032Z,15.49
2023-04-15T13:53:33.934Z,15.44
2023-04-15T13:56:06.250Z,15.29
2023-04-15T13:58:32.958Z,15.34
2023-04-15T14:00:59.532Z,15.38
2023-04-15T14:03:26.281Z,15.40
2023-04-15T14:05:56.141Z,15.37
2023-04-15T14:08:23.604Z,15.32
2023-04-15T14:10:50.372Z,15.20
2023-04-15T14:13:16.926Z,15.27
2023-04-15T14:15:43.455Z,15.31
2023-04-15T14:18:10.036Z,15.34
2023-04-15T14:20:36.543Z,15.23
2023-04-15T14:23:03.022Z,15.21
2023-04-15T14:25:33.834Z,15.28
2023-04-15T14:28:02.163Z,15.29
2023-04-15T14:30:28.868Z,15.36
2023-04-15T14:32:55.593Z,15.40
2023-04-15T14:35:25.981Z,15.35
2023-04-15T14:37:55.820Z,15.35
2023-04-15T14:40:22.929Z,15.40
2023-04-15T14:42:49.557Z,15.41
2023-04-15T14:45:16.290Z,15.41
2023-04-15T14:47:42.952Z,15.40
2023-04-15T14:50:10.055Z,15.30
2023-04-15T14:52:39.452Z,15.23
2023-04-15T14:55:11.555Z,15.28
2023-04-15T14:57:39.134Z,15.34
2023-04-15T15:00:07.402Z,15.35
2023-04-15T15:02:39.169Z,15.21
2023-04-15T15:05:07.202Z,15.14
2023-04-15T15:07:33.941Z,15.08
2023-04-15T15:10:00.473Z,15.10
2023-04-15T15:12:27.004Z,15.07
2023-04-15T15:14:56.004Z,14.97
2023-04-15T15:17:22.604Z,14.99
2023-04-15T15:19:49.305Z,15.08
2023-04-15T15:22:15.870Z,15.23
2023-04-15T15:24:42.418Z,15.36
2023-04-15T15:27:10.492Z,15.38
2023-04-15T15:29:38.214Z,15.44
2023-04-15T15:32:04.948Z,15.54
2023-04-15T15:34:31.697Z,15.67
2023-04-15T15:36:58.289Z,15.75
2023-04-15T15:39:24.804Z,15.83
2023-04-15T15:41:51.305Z,15.89
2023-04-15T15:44:17.810Z,15.92
2023-04-15T15:46:44.529Z,15.95
2023-04-15T15:49:11.650Z,16.00
2023-04-15T15:51:38.146Z,15.99
2023-04-15T15:54:04.689Z,16.00
2023-04-15T15:56:31.360Z,16.02
2023-04-15T15:58:57.901Z,16.05
2023-04-15T16:01:24.465Z,16.08
2023-04-15T16:03:51.150Z,16.10
2023-04-15T16:06:17.840Z,16.14
2023-04-15T16:08:44.444Z,16.17
2023-04-15T16:11:10.979Z,16.21
2023-04-15T16:13:37.545Z,16.29
2023-04-15T16:16:04.187Z,16.36
2023-04-15T16:18:30.767Z,16.43
2023-04-15T16:20:58.567Z,16.49
2023-04-15T16:23:25.148Z,16.56
2023-04-15T16:25:52.075Z,16.65
2023-04-15T16:28:26.328Z,16.73
2023-04-15T16:30:53.945Z,16.81
2023-04-15T16:33:20.546Z,16.87
2023-04-15T16:35:47.103Z,16.91
2023-04-15T16:38:13.650Z,16.92
2023-04-15T16:40:40.220Z,16.95
2023-04-15T16:43:08.205Z,16.96
2023-04-15T16:45:34.864Z,17.01
2023-04-15T16:48:01.569Z,17.07
2023-04-15T16:50:28.221Z,17.12
2023-04-15T16:52:55.283Z,17.18
2023-04-15T16:55:21.926Z,17.22
2023-04-15T16:58:01.851Z,17.25
2023-04-15T17:00:31.562Z,17.25
2023-04-15T17:02:59.027Z,17.24
2023-04-15T17:05:27.625Z,17.22
2023-04-15T17:07:54.459Z,17.20
2023-04-15T17:10:21.318Z,17.16
2023-04-15T17:12:47.828Z,17.14
2023-04-15T17:15:14.336Z,17.13
2023-04-15T17:17:40.911Z,17.10
2023-04-15T17:20:08.025Z,17.06
2023-04-15T17:22:34.619Z,17.04
2023-04-15T17:25:01.126Z,17.03
2023-04-15T17:27:28.903Z,17.00
2023-04-15T17:29:55.574Z,16.96
2023-04-15T17:32:22.752Z,16.92
2023-04-15T17:34:51.400Z,16.89
2023-04-15T17:37:18.440Z,16.85
2023-04-15T17:39:45.370Z,16.83
2023-04-15T17:42:12.524Z,16.79
2023-04-15T17:44:39.574Z,16.74
2023-04-15T17:47:07.075Z,16.72
2023-04-15T17:49:34.283Z,16.67
2023-04-15T17:52:01.301Z,16.63
2023-04-15T17:54:27.972Z,16.62
2023-04-15T17:56:54.578Z,16.58
2023-04-15T17:59:21.201Z,16.53
2023-04-15T18:01:47.889Z,16.49
2023-04-15T18:04:14.748Z,16.45
2023-04-15T18:06:41.572Z,16.38
2023-04-15T18:09:09.087Z,16.33
2023-04-15T18:11:35.731Z,16.26
2023-04-15T18:14:04.132Z,16.19
2023-04-15T18:16:31.087Z,16.11
2023-04-15T18:18:58.401Z,16.03
2023-04-15T18:21:24.908Z,15.95
2023-04-15T18:23:51.377Z,15.87
2023-04-15T18:26:17.929Z,15.79
2023-04-15T18:28:44.444Z,15.73
2023-04-15T18:31:11.182Z,15.66
2023-04-15T18:33:39.380Z,15.55
2023-04-15T18:36:06.108Z,15.49
2023-04-15T18:38:32.670Z,15.39
2023-04-15T18:40:59.168Z,15.32
2023-04-15T18:43:25.664Z,15.23
2023-04-15T18:45:54.607Z,15.14
2023-04-15T18:48:21.149Z,15.03
2023-04-15T18:50:48.437Z,14.93
2023-04-15T18:53:15.380Z,14.83
2023-04-15T18:55:41.933Z,14.75
2023-04-15T18:58:09.361Z,14.71
2023-04-15T19:00:39.039Z,14.62
2023-04-15T19:03:06.602Z,14.54
2023-04-15T19:05:33.621Z,14.48
2023-04-15T19:08:00.524Z,14.44
2023-04-15T19:10:28.149Z,14.40
2023-04-15T19:12:55.559Z,14.37
2023-04-15T19:15:22.356Z,14.31
2023-04-15T19:17:48.943Z,14.28
2023-04-15T19:20:15.621Z,14.26
2023-04-15T19:22:43.176Z,14.22
2023-04-15T19:25:10.054Z,14.18
2023-04-15T19:27:38.299Z,14.15
2023-04-15T19:30:08.014Z,14.07
2023-04-15T19:32:35.847Z,14.03
2023-04-15T19:35:02.495Z,13.98
2023-04-15T19:37:29.095Z,13.93
2023-04-15T19:39:56.138Z,13.88
2023-04-15T19:42:22.788Z,13.85
2023-04-15T19:44:49.302Z,13.82
2023-04-15T19:47:15.960Z,13.76
2023-04-15T19:49:42.532Z,13.71
2023-04-15T19:52:09.013Z,13.68
2023-04-15T19:54:35.484Z,13.63
2023-04-15T19:57:02.194Z,13.56
2023-04-15T19:59:28.710Z,13.54
2023-04-15T20:01:55.418Z,13.48
2023-04-15T20:04:22.835Z,13.42
2023-04-15T20:06:49.899Z,13.40
2023-04-15T20:09:16.952Z,13.35
2023-04-15T20:12:46.692Z,13.33
2023-04-15T20:14:30.037Z,13.32
2023-04-15T20:16:56.969Z,13.24
2023-04-15T20:19:23.602Z,13.19
2023-04-15T20:21:52.096Z,13.16
2023-04-15T20:24:20.404Z,13.14
2023-04-15T20:26:47.356Z,13.06
2023-04-15T20:29:14.088Z,13.01
2023-04-15T20:31:40.838Z,12.94
2023-04-15T20:34:08.810Z,12.91
2023-04-15T20:36:37.272Z,12.83
2023-04-15T20:39:04.180Z,12.72
2023-04-15T20:41:30.960Z,12.65
2023-04-15T20:43:57.451Z,12.61
2023-04-15T20:46:26.664Z,12.55
2023-04-15T20:48:54.011Z,12.46
2023-04-15T20:51:20.572Z,12.42
2023-04-15T20:53:47.176Z,12.32
2023-04-15T20:56:13.709Z,12.31
2023-04-15T20:58:40.195Z,12.25
2023-04-15T21:01:06.817Z,12.18
2023-04-15T21:03:33.744Z,12.15
2023-04-15T21:06:00.381Z,12.08
2023-04-15T21:08:29.234Z,12.03
2023-04-15T21:10:58.760Z,12.00
2023-04-15T21:13:25.274Z,11.96
2023-04-15T21:15:54.081Z,11.94
2023-04-15T21:18:23.849Z,11.84
2023-04-15T21:20:57.857Z,11.83
2023-04-15T21:23:24.530Z,11.75
2023-04-15T21:25:51.171Z,11.74
2023-04-15T21:28:17.692Z,11.71
2023-04-15T21:30:45.628Z,11.71
2023-04-15T21:33:12.113Z,11.63
2023-04-15T21:35:38.680Z,11.62
2023-04-15T21:38:05.243Z,11.59
2023-04-15T21:40:31.809Z,11.57
2023-04-15T21:42:58.406Z,11.57
2023-04-15T21:45:24.973Z,11.55
2023-04-15T21:48:06.113Z,11.55
2023-04-15T21:50:38.740Z,11.52
2023-04-15T21:53:08.308Z,11.50
2023-04-15T21:55:36.120Z,11.48
2023-04-15T21:58:02.661Z,11.44
2023-04-15T22:00:29.376Z,11.43
2023-04-15T22:02:56.071Z,11.42
2023-04-15T22:05:22.717Z,11.40
2023-04-15T22:07:49.293Z,11.38
2023-04-15T22:10:15.755Z,11.32
2023-04-15T22:12:42.394Z,11.35
2023-04-15T22:15:09.224Z,11.28
2023-04-15T22:17:35.785Z,11.26
2023-04-15T22:20:02.942Z,11.24
2023-04-15T22:22:44.352Z,11.24
2023-04-15T22:25:11.883Z,11.18
2023-04-15T22:27:38.488Z,11.16
2023-04-15T22:30:06.061Z,11.13
2023-04-15T22:32:32.612Z,11.08
2023-04-15T22:34:59.218Z,11.09
2023-04-15T22:37:25.827Z,11.10
2023-04-15T22:39:52.344Z,11.07
2023-04-15T22:42:18.960Z,11.04
2023-04-15T22:44:45.436Z,11.00
2023-04-15T22:47:11.989Z,10.98
2023-04-15T22:49:39.483Z,10.92
2023-04-15T22:52:06.098Z,10.91
2023-04-15T22:54:32.876Z,10.87
2023-04-15T22:56:59.440Z,10.81
2023-04-15T22:59:26.061Z,10.74
2023-04-15T23:01:53.415Z,10.69
2023-04-15T23:04:25.385Z,10.65
2023-04-15T23:06:54.668Z,10.61
2023-04-15T23:09:21.479Z,10.57
2023-04-15T23:11:47.974Z,10.52
2023-04-15T23:14:14.480Z,10.50
2023-04-15T23:16:41.384Z,10.44
2023-04-15T23:19:08.397Z,10.40
2023-04-15T23:21:35.457Z,10.41
2023-04-15T23:24:02.072Z,10.35
2023-04-15T23:26:28.624Z,10.31
2023-04-15T23:28:55.625Z,10.26
2023-04-15T23:31:22.154Z,10.22
2023-04-15T23:33:48.710Z,10.19
2023-04-15T23:36:15.252Z,10.12
2023-04-15T23:38:42.136Z,10.07
2023-04-15T23:41:09.927Z,10.05
2023-04-15T23:43:36.670Z,10.04
2023-04-15T23:46:03.564Z,9.97
2023-04-15T23:48:30.179Z,9.92
2023-04-15T23:50:56.923Z,9.89
2023-04-15T23:53:23.412Z,9.84
2023-04-15T23:55:49.961Z,9.82
2023-04-15T23:58:16.607Z,9.80
